sensor_id;sensor_type;location;lat;lon;timestamp;P1;durP1;ratioP1;P2;durP2;ratioP2
42742;SDS011;28397;44.552;-0.848;2022-11-20T00:02:01;18.27;;;12.77;;
42742;SDS011;28397;44.552;-0.848;2022-11-20T00:04:27;16.35;;;11.63;;
42742;SDS011;28397;44.552;-0.848;2022-11-20T00:06:53;13.90;;;10.80;;
42742;SDS011;28397;44.552;-0.848;2022-11-20T00:09:19;14.68;;;9.32;;
42742;SDS011;28397;44.552;-0.848;2022-11-20T00:11:45;18.88;;;12.15;;
42742;SDS011;28397;44.552;-0.848;2022-11-20T00:14:11;19.77;;;13.75;;
42742;SDS011;28397;44.552;-0.848;2022-11-20T00:16:36;18.58;;;11.65;;
42742;SDS011;28397;44.552;-0.848;2022-11-20T00:19:02;16.70;;;12.00;;
42742;SDS011;28397;44.552;-0.848;2022-11-20T00:21:28;15.73;;;10.60;;
42742;SDS011;28397;44.552;-0.848;2022-11-20T00:23:55;11.23;;;8.32;;
42742;SDS011;28397;44.552;-0.848;2022-11-20T00:26:23;14.75;;;9.48;;
42742;SDS011;28397;44.552;-0.848;2022-11-20T00:28:53;17.30;;;10.98;;
42742;SDS011;28397;44.552;-0.848;2022-11-20T00:31:20;13.75;;;10.35;;
42742;SDS011;28397;44.552;-0.848;2022-11-20T00:33:46;15.13;;;10.20;;
42742;SDS011;28397;44.552;-0.848;2022-11-20T00:36:13;14.82;;;8.43;;
42742;SDS011;28397;44.552;-0.848;2022-11-20T00:38:41;9.68;;;7.68;;
42742;SDS011;28397;44.552;-0.848;2022-11-20T00:41:08;13.13;;;8.77;;
42742;SDS011;28397;44.552;-0.848;2022-11-20T00:43:34;11.57;;;7.28;;
42742;SDS011;28397;44.552;-0.848;2022-11-20T00:46:05;11.70;;;8.45;;
42742;SDS011;28397;44.552;-0.848;2022-11-20T00:48:35;13.70;;;10.13;;
42742;SDS011;28397;44.552;-0.848;2022-11-20T00:51:00;13.43;;;10.43;;
42742;SDS011;28397;44.552;-0.848;2022-11-20T00:53:26;12.98;;;9.55;;
42742;SDS011;28397;44.552;-0.848;2022-11-20T00:55:53;14.35;;;8.45;;
42742;SDS011;28397;44.552;-0.848;2022-11-20T00:58:23;11.32;;;7.68;;
42742;SDS011;28397;44.552;-0.848;2022-11-20T01:00:50;14.73;;;8.80;;
42742;SDS011;28397;44.552;-0.848;2022-11-20T01:03:16;13.02;;;7.38;;
42742;SDS011;28397;44.552;-0.848;2022-11-20T01:05:43;12.57;;;8.90;;
42742;SDS011;28397;44.552;-0.848;2022-11-20T01:08:08;11.52;;;7.68;;
42742;SDS011;28397;44.552;-0.848;2022-11-20T01:10:34;14.23;;;7.15;;
42742;SDS011;28397;44.552;-0.848;2022-11-20T01:13:00;13.30;;;10.82;;
42742;SDS011;28397;44.552;-0.848;2022-11-20T01:15:44;13.82;;;7.90;;
42742;SDS011;28397;44.552;-0.848;2022-11-20T01:18:09;11.48;;;7.07;;
42742;SDS011;28397;44.552;-0.848;2022-11-20T01:20:35;11.48;;;6.28;;
42742;SDS011;28397;44.552;-0.848;2022-11-20T01:23:02;11.35;;;6.40;;
42742;SDS011;28397;44.552;-0.848;2022-11-20T01:25:28;10.45;;;6.35;;
42742;SDS011;28397;44.552;-0.848;2022-11-20T01:27:55;12.85;;;6.47;;
42742;SDS011;28397;44.552;-0.848;2022-11-20T01:30:20;10.77;;;6.60;;
42742;SDS011;28397;44.552;-0.848;2022-11-20T01:32:46;12.05;;;7.15;;
42742;SDS011;28397;44.552;-0.848;2022-11-20T01:35:12;12.13;;;7.72;;
42742;SDS011;28397;44.552;-0.848;2022-11-20T01:37:38;12.77;;;8.13;;
42742;SDS011;28397;44.552;-0.848;2022-11-20T01:40:03;15.80;;;9.13;;
42742;SDS011;28397;44.552;-0.848;2022-11-20T01:42:30;12.05;;;7.13;;
42742;SDS011;28397;44.552;-0.848;2022-11-20T01:48:18;11.25;;;5.35;;
42742;SDS011;28397;44.552;-0.848;2022-11-20T01:50:45;11.35;;;6.53;;
42742;SDS011;28397;44.552;-0.848;2022-11-20T01:53:12;11.15;;;6.72;;
42742;SDS011;28397;44.552;-0.848;2022-11-20T01:55:45;9.23;;;6.57;;
42742;SDS011;28397;44.552;-0.848;2022-11-20T01:58:18;9.35;;;5.28;;
42742;SDS011;28397;44.552;-0.848;2022-11-20T02:00:47;9.02;;;4.93;;
42742;SDS011;28397;44.552;-0.848;2022-11-20T02:03:15;8.27;;;4.57;;
42742;SDS011;28397;44.552;-0.848;2022-11-20T02:05:51;9.52;;;5.00;;
42742;SDS011;28397;44.552;-0.848;2022-11-20T02:08:17;10.60;;;5.72;;
42742;SDS011;28397;44.552;-0.848;2022-11-20T02:10:44;10.00;;;5.00;;
42742;SDS011;28397;44.552;-0.848;2022-11-20T02:13:09;8.90;;;4.75;;
42742;SDS011;28397;44.552;-0.848;2022-11-20T02:15:54;10.23;;;6.13;;
42742;SDS011;28397;44.552;-0.848;2022-11-20T02:18:20;7.75;;;4.50;;
42742;SDS011;28397;44.552;-0.848;2022-11-20T02:20:53;8.93;;;5.00;;
42742;SDS011;28397;44.552;-0.848;2022-11-20T02:23:39;9.93;;;5.47;;
42742;SDS011;28397;44.552;-0.848;2022-11-20T02:26:24;12.30;;;5.90;;
42742;SDS011;28397;44.552;-0.848;2022-11-20T02:28:52;10.77;;;5.25;;
42742;SDS011;28397;44.552;-0.848;2022-11-20T02:31:18;9.50;;;4.85;;
42742;SDS011;28397;44.552;-0.848;2022-11-20T02:33:44;11.80;;;5.57;;
42742;SDS011;28397;44.552;-0.848;2022-11-20T02:36:10;10.95;;;4.90;;
42742;SDS011;28397;44.552;-0.848;2022-11-20T02:38:39;8.07;;;4.05;;
42742;SDS011;28397;44.552;-0.848;2022-11-20T02:41:05;9.20;;;4.55;;
42742;SDS011;28397;44.552;-0.848;2022-11-20T02:43:30;9.30;;;4.05;;
42742;SDS011;28397;44.552;-0.848;2022-11-20T02:45:56;6.32;;;3.58;;
42742;SDS011;28397;44.552;-0.848;2022-11-20T02:48:22;14.07;;;4.57;;
42742;SDS011;28397;44.552;-0.848;2022-11-20T02:50:47;7.30;;;3.95;;
42742;SDS011;28397;44.552;-0.848;2022-11-20T02:53:13;7.78;;;5.25;;
42742;SDS011;28397;44.552;-0.848;2022-11-20T02:55:39;6.65;;;4.63;;
42742;SDS011;28397;44.552;-0.848;2022-11-20T02:58:04;11.63;;;5.75;;
42742;SDS011;28397;44.552;-0.848;2022-11-20T03:00:30;8.50;;;4.65;;
42742;SDS011;28397;44.552;-0.848;2022-11-20T03:02:57;11.32;;;5.43;;
42742;SDS011;28397;44.552;-0.848;2022-11-20T03:05:22;7.75;;;4.07;;
42742;SDS011;28397;44.552;-0.848;2022-11-20T03:07:48;8.95;;;4.35;;
42742;SDS011;28397;44.552;-0.848;2022-11-20T03:10:14;7.30;;;3.80;;
42742;SDS011;28397;44.552;-0.848;2022-11-20T03:12:39;10.05;;;8.55;;
42742;SDS011;28397;44.552;-0.848;2022-11-20T03:15:05;9.70;;;4.63;;
42742;SDS011;28397;44.552;-0.848;2022-11-20T03:17:31;7.00;;;3.92;;
42742;SDS011;28397;44.552;-0.848;2022-11-20T03:19:57;8.80;;;4.60;;
42742;SDS011;28397;44.552;-0.848;2022-11-20T03:22:22;8.07;;;3.83;;
42742;SDS011;28397;44.552;-0.848;2022-11-20T03:24:48;6.82;;;3.88;;
42742;SDS011;28397;44.552;-0.848;2022-11-20T03:27:14;9.30;;;3.80;;
42742;SDS011;28397;44.552;-0.848;2022-11-20T03:29:39;8.38;;;4.35;;
42742;SDS011;28397;44.552;-0.848;2022-11-20T03:32:05;6.68;;;3.50;;
42742;SDS011;28397;44.552;-0.848;2022-11-20T03:34:32;6.18;;;3.80;;
42742;SDS011;28397;44.552;-0.848;2022-11-20T03:36:58;5.53;;;3.70;;
42742;SDS011;28397;44.552;-0.848;2022-11-20T03:39:23;6.43;;;3.60;;
42742;SDS011;28397;44.552;-0.848;2022-11-20T03:41:49;5.15;;;3.50;;
42742;SDS011;28397;44.552;-0.848;2022-11-20T03:44:15;6.70;;;3.78;;
42742;SDS011;28397;44.552;-0.848;2022-11-20T03:46:40;9.43;;;4.32;;
42742;SDS011;28397;44.552;-0.848;2022-11-20T03:49:06;6.93;;;4.30;;
42742;SDS011;28397;44.552;-0.848;2022-11-20T03:51:33;11.05;;;4.45;;
42742;SDS011;28397;44.552;-0.848;2022-11-20T03:54:02;6.78;;;3.65;;
42742;SDS011;28397;44.552;-0.848;2022-11-20T03:56:30;6.75;;;3.90;;
42742;SDS011;28397;44.552;-0.848;2022-11-20T03:58:57;4.93;;;3.45;;
42742;SDS011;28397;44.552;-0.848;2022-11-20T04:01:28;7.53;;;3.58;;
42742;SDS011;28397;44.552;-0.848;2022-11-20T04:03:56;6.07;;;3.60;;
42742;SDS011;28397;44.552;-0.848;2022-11-20T04:06:43;8.77;;;4.38;;
42742;SDS011;28397;44.552;-0.848;2022-11-20T04:09:08;7.05;;;4.78;;
42742;SDS011;28397;44.552;-0.848;2022-11-20T04:11:34;7.03;;;4.85;;
42742;SDS011;28397;44.552;-0.848;2022-11-20T04:14:03;7.07;;;4.25;;
42742;SDS011;28397;44.552;-0.848;2022-11-20T04:16:31;9.30;;;4.85;;
42742;SDS011;28397;44.552;-0.848;2022-11-20T04:18:59;6.35;;;4.03;;
42742;SDS011;28397;44.552;-0.848;2022-11-20T04:21:26;6.38;;;5.10;;
42742;SDS011;28397;44.552;-0.848;2022-11-20T04:23:53;13.20;;;4.85;;
42742;SDS011;28397;44.552;-0.848;2022-11-20T04:26:19;7.45;;;4.28;;
42742;SDS011;28397;44.552;-0.848;2022-11-20T04:28:46;5.63;;;3.38;;
42742;SDS011;28397;44.552;-0.848;2022-11-20T04:31:22;7.43;;;4.00;;
42742;SDS011;28397;44.552;-0.848;2022-11-20T04:33:52;9.52;;;4.30;;
42742;SDS011;28397;44.552;-0.848;2022-11-20T04:36:19;6.38;;;3.47;;
42742;SDS011;28397;44.552;-0.848;2022-11-20T04:38:50;5.35;;;3.90;;
42742;SDS011;28397;44.552;-0.848;2022-11-20T04:41:17;7.57;;;4.47;;
42742;SDS011;28397;44.552;-0.848;2022-11-20T04:43:51;8.55;;;4.20;;
42742;SDS011;28397;44.552;-0.848;2022-11-20T04:46:24;7.85;;;3.80;;
42742;SDS011;28397;44.552;-0.848;2022-11-20T04:48:50;7.38;;;3.70;;
42742;SDS011;28397;44.552;-0.848;2022-11-20T04:51:16;6.40;;;3.70;;
42742;SDS011;28397;44.552;-0.848;2022-11-20T04:53:42;7.85;;;4.25;;
42742;SDS011;28397;44.552;-0.848;2022-11-20T04:56:09;6.55;;;4.22;;
42742;SDS011;28397;44.552;-0.848;2022-11-20T04:58:36;7.80;;;4.55;;
42742;SDS011;28397;44.552;-0.848;2022-11-20T05:03:37;5.85;;;4.18;;
42742;SDS011;28397;44.552;-0.848;2022-11-20T05:06:03;6.68;;;3.08;;
42742;SDS011;28397;44.552;-0.848;2022-11-20T05:08:31;7.80;;;4.10;;
42742;SDS011;28397;44.552;-0.848;2022-11-20T05:11:04;6.97;;;4.00;;
42742;SDS011;28397;44.552;-0.848;2022-11-20T05:13:34;6.72;;;3.40;;
42742;SDS011;28397;44.552;-0.848;2022-11-20T05:16:03;10.57;;;5.10;;
42742;SDS011;28397;44.552;-0.848;2022-11-20T05:18:31;9.05;;;6.10;;
42742;SDS011;28397;44.552;-0.848;2022-11-20T05:20:58;8.65;;;3.50;;
42742;SDS011;28397;44.552;-0.848;2022-11-20T05:23:24;8.70;;;4.53;;
42742;SDS011;28397;44.552;-0.848;2022-11-20T05:25:53;8.95;;;4.13;;
42742;SDS011;28397;44.552;-0.848;2022-11-20T05:28:20;6.63;;;3.67;;
42742;SDS011;28397;44.552;-0.848;2022-11-20T05:30:46;10.00;;;5.95;;
42742;SDS011;28397;44.552;-0.848;2022-11-20T05:33:12;11.88;;;5.35;;
42742;SDS011;28397;44.552;-0.848;2022-11-20T05:35:37;9.32;;;4.90;;
42742;SDS011;28397;44.552;-0.848;2022-11-20T05:38:03;10.65;;;5.25;;
42742;SDS011;28397;44.552;-0.848;2022-11-20T05:40:29;7.03;;;4.45;;
42742;SDS011;28397;44.552;-0.848;2022-11-20T05:42:54;8.00;;;4.30;;
42742;SDS011;28397;44.552;-0.848;2022-11-20T05:45:20;6.95;;;3.95;;
42742;SDS011;28397;44.552;-0.848;2022-11-20T05:47:46;7.47;;;4.03;;
42742;SDS011;28397;44.552;-0.848;2022-11-20T05:50:12;5.78;;;3.75;;
42742;SDS011;28397;44.552;-0.848;2022-11-20T05:52:38;6.28;;;3.60;;
42742;SDS011;28397;44.552;-0.848;2022-11-20T05:55:04;5.60;;;3.70;;
42742;SDS011;28397;44.552;-0.848;2022-11-20T05:57:31;5.63;;;3.53;;
42742;SDS011;28397;44.552;-0.848;2022-11-20T05:59:57;5.40;;;2.75;;
42742;SDS011;28397;44.552;-0.848;2022-11-20T06:02:22;8.63;;;4.47;;
42742;SDS011;28397;44.552;-0.848;2022-11-20T06:04:48;7.18;;;5.05;;
42742;SDS011;28397;44.552;-0.848;2022-11-20T06:07:14;7.05;;;4.32;;
42742;SDS011;28397;44.552;-0.848;2022-11-20T06:09:40;10.98;;;4.70;;
42742;SDS011;28397;44.552;-0.848;2022-11-20T06:12:06;10.50;;;4.25;;
42742;SDS011;28397;44.552;-0.848;2022-11-20T06:14:32;6.95;;;4.03;;
42742;SDS011;28397;44.552;-0.848;2022-11-20T06:16:58;8.13;;;3.80;;
42742;SDS011;28397;44.552;-0.848;2022-11-20T06:19:24;5.82;;;3.58;;
42742;SDS011;28397;44.552;-0.848;2022-11-20T06:21:49;6.95;;;3.97;;
42742;SDS011;28397;44.552;-0.848;2022-11-20T06:24:15;6.50;;;3.65;;
42742;SDS011;28397;44.552;-0.848;2022-11-20T06:26:41;6.45;;;3.10;;
42742;SDS011;28397;44.552;-0.848;2022-11-20T06:29:07;7.13;;;4.78;;
42742;SDS011;28397;44.552;-0.848;2022-11-20T06:31:33;8.35;;;4.93;;
42742;SDS011;28397;44.552;-0.848;2022-11-20T06:34:02;7.10;;;5.00;;
42742;SDS011;28397;44.552;-0.848;2022-11-20T06:36:31;6.60;;;3.85;;
42742;SDS011;28397;44.552;-0.848;2022-11-20T06:38:58;8.40;;;4.10;;
42742;SDS011;28397;44.552;-0.848;2022-11-20T06:41:24;7.95;;;4.07;;
42742;SDS011;28397;44.552;-0.848;2022-11-20T06:43:50;7.45;;;3.75;;
42742;SDS011;28397;44.552;-0.848;2022-11-20T06:46:17;7.38;;;3.75;;
42742;SDS011;28397;44.552;-0.848;2022-11-20T06:48:43;5.75;;;3.28;;
42742;SDS011;28397;44.552;-0.848;2022-11-20T06:51:10;5.65;;;3.25;;
42742;SDS011;28397;44.552;-0.848;2022-11-20T06:53:36;7.50;;;3.45;;
42742;SDS011;28397;44.552;-0.848;2022-11-20T06:56:02;5.60;;;2.60;;
42742;SDS011;28397;44.552;-0.848;2022-11-20T06:58:29;7.93;;;3.10;;
42742;SDS011;28397;44.552;-0.848;2022-11-20T07:01:00;7.55;;;2.83;;
42742;SDS011;28397;44.552;-0.848;2022-11-20T07:03:27;7.13;;;3.20;;
42742;SDS011;28397;44.552;-0.848;2022-11-20T07:05:56;7.15;;;3.03;;
42742;SDS011;28397;44.552;-0.848;2022-11-20T07:08:23;6.13;;;3.17;;
42742;SDS011;28397;44.552;-0.848;2022-11-20T07:10:49;5.35;;;4.00;;
42742;SDS011;28397;44.552;-0.848;2022-11-20T07:13:15;7.85;;;3.90;;
42742;SDS011;28397;44.552;-0.848;2022-11-20T07:15:41;9.45;;;6.82;;
42742;SDS011;28397;44.552;-0.848;2022-11-20T07:18:07;8.27;;;4.68;;
42742;SDS011;28397;44.552;-0.848;2022-11-20T07:20:32;9.85;;;4.10;;
42742;SDS011;28397;44.552;-0.848;2022-11-20T07:22:58;7.53;;;3.72;;
42742;SDS011;28397;44.552;-0.848;2022-11-20T07:25:27;8.88;;;3.40;;
42742;SDS011;28397;44.552;-0.848;2022-11-20T07:27:59;5.47;;;3.00;;
42742;SDS011;28397;44.552;-0.848;2022-11-20T07:30:28;7.50;;;2.70;;
42742;SDS011;28397;44.552;-0.848;2022-11-20T07:32:55;5.57;;;2.70;;
42742;SDS011;28397;44.552;-0.848;2022-11-20T07:35:22;5.97;;;3.15;;
42742;SDS011;28397;44.552;-0.848;2022-11-20T07:37:49;5.80;;;3.08;;
42742;SDS011;28397;44.552;-0.848;2022-11-20T07:40:17;9.48;;;3.38;;
42742;SDS011;28397;44.552;-0.848;2022-11-20T07:42:54;5.78;;;2.50;;
42742;SDS011;28397;44.552;-0.848;2022-11-20T07:45:21;6.40;;;3.00;;
42742;SDS011;28397;44.552;-0.848;2022-11-20T07:47:48;4.75;;;2.75;;
42742;SDS011;28397;44.552;-0.848;2022-11-20T07:50:15;7.53;;;2.60;;
42742;SDS011;28397;44.552;-0.848;2022-11-20T07:52:41;6.50;;;3.05;;
42742;SDS011;28397;44.552;-0.848;2022-11-20T07:55:07;5.57;;;2.42;;
42742;SDS011;28397;44.552;-0.848;2022-11-20T07:57:33;7.43;;;2.75;;
42742;SDS011;28397;44.552;-0.848;2022-11-20T07:59:59;5.28;;;2.35;;
42742;SDS011;28397;44.552;-0.848;2022-11-20T08:02:25;7.47;;;3.13;;
42742;SDS011;28397;44.552;-0.848;2022-11-20T08:04:50;10.45;;;3.53;;
42742;SDS011;28397;44.552;-0.848;2022-11-20T08:07:16;5.93;;;2.58;;
42742;SDS011;28397;44.552;-0.848;2022-11-20T08:09:42;5.72;;;2.72;;
42742;SDS011;28397;44.552;-0.848;2022-11-20T08:12:07;6.97;;;3.25;;
42742;SDS011;28397;44.552;-0.848;2022-11-20T08:14:59;7.13;;;2.70;;
42742;SDS011;28397;44.552;-0.848;2022-11-20T08:17:25;6.32;;;2.70;;
42742;SDS011;28397;44.552;-0.848;2022-11-20T08:19:51;6.00;;;2.30;;
42742;SDS011;28397;44.552;-0.848;2022-11-20T08:22:16;7.05;;;2.22;;
42742;SDS011;28397;44.552;-0.848;2022-11-20T08:24:42;5.82;;;2.05;;
42742;SDS011;28397;44.552;-0.848;2022-11-20T08:27:08;7.78;;;2.35;;
42742;SDS011;28397;44.552;-0.848;2022-11-20T08:29:33;8.05;;;2.00;;
42742;SDS011;28397;44.552;-0.848;2022-11-20T08:31:59;4.18;;;1.63;;
42742;SDS011;28397;44.552;-0.848;2022-11-20T08:34:25;4.82;;;1.63;;
42742;SDS011;28397;44.552;-0.848;2022-11-20T08:36:50;8.32;;;2.13;;
42742;SDS011;28397;44.552;-0.848;2022-11-20T08:39:16;3.75;;;1.73;;
42742;SDS011;28397;44.552;-0.848;2022-11-20T08:41:42;7.20;;;1.75;;
42742;SDS011;28397;44.552;-0.848;2022-11-20T08:44:08;7.93;;;2.00;;
42742;SDS011;28397;44.552;-0.848;2022-11-20T08:46:37;8.23;;;2.00;;
42742;SDS011;28397;44.552;-0.848;2022-11-20T08:49:07;6.88;;;1.60;;
42742;SDS011;28397;44.552;-0.848;2022-11-20T08:51:34;5.25;;;2.00;;
42742;SDS011;28397;44.552;-0.848;2022-11-20T08:54:00;5.88;;;2.30;;
42742;SDS011;28397;44.552;-0.848;2022-11-20T08:56:26;16.58;;;12.68;;
42742;SDS011;28397;44.552;-0.848;2022-11-20T08:58:52;4.85;;;1.67;;
42742;SDS011;28397;44.552;-0.848;2022-11-20T09:01:18;6.40;;;2.40;;
42742;SDS011;28397;44.552;-0.848;2022-11-20T09:03:45;12.93;;;7.30;;
42742;SDS011;28397;44.552;-0.848;2022-11-20T09:06:11;6.78;;;2.92;;
42742;SDS011;28397;44.552;-0.848;2022-11-20T09:08:37;6.75;;;2.10;;
42742;SDS011;28397;44.552;-0.848;2022-11-20T09:11:03;6.90;;;3.05;;
42742;SDS011;28397;44.552;-0.848;2022-11-20T09:13:30;7.38;;;4.28;;
42742;SDS011;28397;44.552;-0.848;2022-11-20T09:15:57;11.70;;;3.00;;
42742;SDS011;28397;44.552;-0.848;2022-11-20T09:18:31;7.22;;;4.18;;
42742;SDS011;28397;44.552;-0.848;2022-11-20T09:21:01;4.85;;;1.73;;
42742;SDS011;28397;44.552;-0.848;2022-11-20T09:23:30;5.90;;;2.30;;
42742;SDS011;28397;44.552;-0.848;2022-11-20T09:26:01;7.38;;;2.00;;
42742;SDS011;28397;44.552;-0.848;2022-11-20T09:28:30;8.18;;;2.20;;
42742;SDS011;28397;44.552;-0.848;2022-11-20T09:30:56;7.80;;;2.25;;
42742;SDS011;28397;44.552;-0.848;2022-11-20T09:33:22;8.48;;;2.30;;
42742;SDS011;28397;44.552;-0.848;2022-11-20T09:35:48;8.93;;;3.28;;
42742;SDS011;28397;44.552;-0.848;2022-11-20T09:38:13;8.55;;;2.47;;
42742;SDS011;28397;44.552;-0.848;2022-11-20T09:40:46;13.52;;;11.35;;
42742;SDS011;28397;44.552;-0.848;2022-11-20T09:51:07;10.45;;;2.70;;
42742;SDS011;28397;44.552;-0.848;2022-11-20T09:56:30;6.68;;;2.60;;
42742;SDS011;28397;44.552;-0.848;2022-11-20T09:59:03;6.22;;;3.60;;
42742;SDS011;28397;44.552;-0.848;2022-11-20T10:01:35;8.88;;;3.03;;
42742;SDS011;28397;44.552;-0.848;2022-11-20T10:06:32;7.43;;;4.43;;
42742;SDS011;28397;44.552;-0.848;2022-11-20T10:14:14;34.35;;;27.75;;
42742;SDS011;28397;44.552;-0.848;2022-11-20T10:17:46;43.63;;;32.67;;
42742;SDS011;28397;44.552;-0.848;2022-11-20T10:29:02;14.75;;;13.18;;
42742;SDS011;28397;44.552;-0.848;2022-11-20T10:31:29;43.58;;;39.83;;
42742;SDS011;28397;44.552;-0.848;2022-11-20T10:36:55;14.25;;;11.48;;
42742;SDS011;28397;44.552;-0.848;2022-11-20T10:39:46;11.48;;;7.88;;
42742;SDS011;28397;44.552;-0.848;2022-11-20T10:42:25;9.77;;;5.50;;
42742;SDS011;28397;44.552;-0.848;2022-11-20T10:50:32;28.63;;;14.45;;
42742;SDS011;28397;44.552;-0.848;2022-11-20T10:56:00;18.02;;;4.85;;
42742;SDS011;28397;44.552;-0.848;2022-11-20T11:01:25;22.73;;;5.72;;
42742;SDS011;28397;44.552;-0.848;2022-11-20T11:03:52;24.85;;;6.95;;
42742;SDS011;28397;44.552;-0.848;2022-11-20T11:06:32;27.08;;;6.32;;
42742;SDS011;28397;44.552;-0.848;2022-11-20T11:09:01;28.25;;;5.63;;
42742;SDS011;28397;44.552;-0.848;2022-11-20T11:11:34;28.70;;;9.85;;
42742;SDS011;28397;44.552;-0.848;2022-11-20T11:16:40;24.95;;;7.22;;
42742;SDS011;28397;44.552;-0.848;2022-11-20T11:19:17;29.23;;;8.00;;
42742;SDS011;28397;44.552;-0.848;2022-11-20T11:21:47;46.53;;;29.83;;
42742;SDS011;28397;44.552;-0.848;2022-11-20T11:24:24;33.92;;;13.30;;
42742;SDS011;28397;44.552;-0.848;2022-11-20T11:26:58;30.48;;;9.63;;
42742;SDS011;28397;44.552;-0.848;2022-11-20T11:29:32;29.67;;;7.97;;
42742;SDS011;28397;44.552;-0.848;2022-11-20T11:32:08;25.58;;;8.35;;
42742;SDS011;28397;44.552;-0.848;2022-11-20T11:34:57;22.48;;;6.75;;
42742;SDS011;28397;44.552;-0.848;2022-11-20T11:37:35;23.13;;;7.20;;
42742;SDS011;28397;44.552;-0.848;2022-11-20T11:40:05;23.23;;;5.78;;
42742;SDS011;28397;44.552;-0.848;2022-11-20T11:42:39;19.95;;;4.97;;
42742;SDS011;28397;44.552;-0.848;2022-11-20T11:45:15;23.65;;;6.75;;
42742;SDS011;28397;44.552;-0.848;2022-11-20T11:47:47;24.90;;;6.28;;
42742;SDS011;28397;44.552;-0.848;2022-11-20T11:50:18;24.92;;;5.50;;
42742;SDS011;28397;44.552;-0.848;2022-11-20T11:55:37;21.50;;;5.03;;
42742;SDS011;28397;44.552;-0.848;2022-11-20T12:06:30;25.75;;;6.28;;
42742;SDS011;28397;44.552;-0.848;2022-11-20T12:09:01;18.73;;;5.40;;
42742;SDS011;28397;44.552;-0.848;2022-11-20T12:16:29;27.58;;;7.63;;
42742;SDS011;28397;44.552;-0.848;2022-11-20T12:19:00;23.58;;;4.72;;
42742;SDS011;28397;44.552;-0.848;2022-11-20T12:21:28;23.55;;;5.03;;
42742;SDS011;28397;44.552;-0.848;2022-11-20T12:30:14;32.33;;;14.70;;
42742;SDS011;28397;44.552;-0.848;2022-11-20T12:40:44;25.40;;;8.98;;
42742;SDS011;28397;44.552;-0.848;2022-11-20T12:46:09;21.83;;;7.45;;
42742;SDS011;28397;44.552;-0.848;2022-11-20T12:51:50;21.67;;;5.82;;
42742;SDS011;28397;44.552;-0.848;2022-11-20T13:00:28;21.95;;;7.80;;
42742;SDS011;28397;44.552;-0.848;2022-11-20T13:03:43;18.27;;;4.25;;
42742;SDS011;28397;44.552;-0.848;2022-11-20T13:08:36;18.52;;;4.65;;
42742;SDS011;28397;44.552;-0.848;2022-11-20T13:19:13;17.85;;;4.57;;
42742;SDS011;28397;44.552;-0.848;2022-11-20T13:21:42;18.70;;;4.10;;
42742;SDS011;28397;44.552;-0.848;2022-11-20T13:29:43;18.33;;;3.70;;
42742;SDS011;28397;44.552;-0.848;2022-11-20T13:34:56;31.67;;;12.27;;
42742;SDS011;28397;44.552;-0.848;2022-11-20T13:37:34;27.65;;;11.23;;
42742;SDS011;28397;44.552;-0.848;2022-11-20T13:42:54;19.35;;;8.27;;
42742;SDS011;28397;44.552;-0.848;2022-11-20T13:45:30;20.63;;;9.93;;
42742;SDS011;28397;44.552;-0.848;2022-11-20T13:47:57;16.33;;;6.50;;
42742;SDS011;28397;44.552;-0.848;2022-11-20T13:59:02;32.08;;;15.50;;
42742;SDS011;28397;44.552;-0.848;2022-11-20T14:01:37;36.17;;;16.70;;
42742;SDS011;28397;44.552;-0.848;2022-11-20T14:04:07;61.95;;;31.70;;
42742;SDS011;28397;44.552;-0.848;2022-11-20T14:06:38;36.85;;;16.67;;
42742;SDS011;28397;44.552;-0.848;2022-11-20T14:09:11;26.73;;;12.40;;
42742;SDS011;28397;44.552;-0.848;2022-11-20T14:11:49;30.40;;;16.98;;
42742;SDS011;28397;44.552;-0.848;2022-11-20T14:14:16;24.30;;;10.70;;
42742;SDS011;28397;44.552;-0.848;2022-11-20T14:16:50;17.27;;;4.18;;
42742;SDS011;28397;44.552;-0.848;2022-11-20T14:21:42;16.80;;;4.03;;
42742;SDS011;28397;44.552;-0.848;2022-11-20T14:24:10;19.77;;;5.40;;
42742;SDS011;28397;44.552;-0.848;2022-11-20T14:26:37;15.73;;;4.63;;
42742;SDS011;28397;44.552;-0.848;2022-11-20T14:31:40;13.83;;;4.37;;
42742;SDS011;28397;44.552;-0.848;2022-11-20T14:34:12;19.48;;;4.68;;
42742;SDS011;28397;44.552;-0.848;2022-11-20T14:36:47;15.23;;;3.30;;
42742;SDS011;28397;44.552;-0.848;2022-11-20T14:39:20;21.13;;;4.80;;
42742;SDS011;28397;44.552;-0.848;2022-11-20T14:41:51;23.85;;;6.57;;
42742;SDS011;28397;44.552;-0.848;2022-11-20T14:44:17;42.72;;;13.55;;
42742;SDS011;28397;44.552;-0.848;2022-11-20T14:46:46;41.97;;;14.57;;
42742;SDS011;28397;44.552;-0.848;2022-11-20T14:49:12;46.47;;;17.55;;
42742;SDS011;28397;44.552;-0.848;2022-11-20T14:51:39;50.55;;;17.40;;
42742;SDS011;28397;44.552;-0.848;2022-11-20T14:56:53;26.35;;;7.78;;
42742;SDS011;28397;44.552;-0.848;2022-11-20T14:59:23;20.80;;;6.07;;
42742;SDS011;28397;44.552;-0.848;2022-11-20T15:01:54;17.33;;;4.60;;
42742;SDS011;28397;44.552;-0.848;2022-11-20T15:04:29;17.05;;;4.35;;
42742;SDS011;28397;44.552;-0.848;2022-11-20T15:06:56;12.52;;;4.00;;
42742;SDS011;28397;44.552;-0.848;2022-11-20T15:09:22;17.20;;;4.90;;
42742;SDS011;28397;44.552;-0.848;2022-11-20T15:11:55;18.42;;;4.43;;
42742;SDS011;28397;44.552;-0.848;2022-11-20T15:14:25;23.77;;;8.80;;
42742;SDS011;28397;44.552;-0.848;2022-11-20T15:16:53;19.15;;;5.47;;
42742;SDS011;28397;44.552;-0.848;2022-11-20T15:19:20;16.45;;;5.57;;
42742;SDS011;28397;44.552;-0.848;2022-11-20T15:21:51;21.25;;;5.65;;
42742;SDS011;28397;44.552;-0.848;2022-11-20T15:24:17;17.50;;;3.97;;
42742;SDS011;28397;44.552;-0.848;2022-11-20T15:26:43;14.38;;;6.18;;
42742;SDS011;28397;44.552;-0.848;2022-11-20T15:29:13;18.52;;;4.32;;
42742;SDS011;28397;44.552;-0.848;2022-11-20T15:31:44;20.60;;;6.88;;
42742;SDS011;28397;44.552;-0.848;2022-11-20T15:34:11;20.30;;;5.55;;
42742;SDS011;28397;44.552;-0.848;2022-11-20T15:36:38;32.85;;;14.77;;
42742;SDS011;28397;44.552;-0.848;2022-11-20T15:39:04;29.58;;;11.70;;
42742;SDS011;28397;44.552;-0.848;2022-11-20T15:41:32;17.83;;;5.95;;
42742;SDS011;28397;44.552;-0.848;2022-11-20T15:44:01;20.58;;;9.02;;
42742;SDS011;28397;44.552;-0.848;2022-11-20T15:46:28;22.98;;;9.05;;
42742;SDS011;28397;44.552;-0.848;2022-11-20T15:48:58;24.70;;;9.25;;
42742;SDS011;28397;44.552;-0.848;2022-11-20T15:51:38;23.10;;;6.32;;
42742;SDS011;28397;44.552;-0.848;2022-11-20T15:54:13;24.10;;;6.97;;
42742;SDS011;28397;44.552;-0.848;2022-11-20T15:56:45;23.90;;;6.20;;
42742;SDS011;28397;44.552;-0.848;2022-11-20T15:59:11;23.17;;;6.10;;
42742;SDS011;28397;44.552;-0.848;2022-11-20T16:01:39;21.05;;;7.75;;
42742;SDS011;28397;44.552;-0.848;2022-11-20T16:04:10;24.25;;;6.75;;
42742;SDS011;28397;44.552;-0.848;2022-11-20T16:06:37;25.50;;;6.07;;
42742;SDS011;28397;44.552;-0.848;2022-11-20T16:09:02;22.15;;;5.28;;
42742;SDS011;28397;44.552;-0.848;2022-11-20T16:11:28;20.50;;;5.20;;
42742;SDS011;28397;44.552;-0.848;2022-11-20T16:13:54;20.20;;;4.45;;
42742;SDS011;28397;44.552;-0.848;2022-11-20T16:16:39;23.80;;;5.18;;
42742;SDS011;28397;44.552;-0.848;2022-11-20T16:19:09;22.55;;;4.90;;
42742;SDS011;28397;44.552;-0.848;2022-11-20T16:21:39;22.05;;;5.47;;
42742;SDS011;28397;44.552;-0.848;2022-11-20T16:24:06;25.10;;;6.60;;
42742;SDS011;28397;44.552;-0.848;2022-11-20T16:26:34;24.40;;;6.50;;
42742;SDS011;28397;44.552;-0.848;2022-11-20T16:29:00;22.08;;;6.20;;
42742;SDS011;28397;44.552;-0.848;2022-11-20T16:31:27;24.67;;;6.22;;
42742;SDS011;28397;44.552;-0.848;2022-11-20T16:33:54;21.38;;;6.25;;
42742;SDS011;28397;44.552;-0.848;2022-11-20T16:36:22;23.05;;;6.13;;
42742;SDS011;28397;44.552;-0.848;2022-11-20T16:38:52;20.63;;;5.75;;
42742;SDS011;28397;44.552;-0.848;2022-11-20T16:41:23;26.85;;;6.53;;
42742;SDS011;28397;44.552;-0.848;2022-11-20T16:43:54;21.30;;;6.18;;
42742;SDS011;28397;44.552;-0.848;2022-11-20T16:46:22;21.88;;;5.97;;